createdAt,value
2019-04-19T00:01:02.719Z,46.01
2019-04-19T00:02:05.003Z,46.39
2019-04-19T00:02:58.216Z,46.58
2019-04-19T00:04:04.838Z,46.48
2019-04-19T00:05:02.475Z,46.87
2019-04-19T00:05:58.222Z,46.56
2019-04-19T00:07:04.506Z,46.94
2019-04-19T00:08:15.264Z,46.56
2019-04-19T00:09:14.027Z,45.70
2019-04-19T00:10:03.983Z,46.46
2019-04-19T00:11:12.906Z,46.75
2019-04-19T00:12:13.163Z,47.42
2019-04-19T00:13:02.713Z,47.03
2019-04-19T00:13:58.015Z,47.13
2019-04-19T00:14:58.977Z,46.56
2019-04-19T00:15:58.461Z,47.23
2019-04-19T00:16:57.844Z,47.80
2019-04-19T00:18:03.517Z,47.13
2019-04-19T00:19:20.078Z,46.94
2019-04-19T00:20:23.417Z,47.52
2019-04-19T00:21:19.556Z,46.56
2019-04-19T00:22:22.263Z,47.13
2019-04-19T00:23:08.668Z,46.46
2019-04-19T00:23:58.285Z,46.27
2019-04-19T00:24:58.623Z,47.13
2019-04-19T00:25:57.852Z,47.03
2019-04-19T00:26:58.860Z,47.23
2019-04-19T00:27:59.889Z,47.23
2019-04-19T00:29:02.462Z,48.09
2019-04-19T00:30:02.816Z,48.18
2019-04-19T00:31:14.360Z,47.52
2019-04-19T00:32:12.885Z,47.71
2019-04-19T00:33:13.646Z,47.71
2019-04-19T00:33:59.270Z,47.03
2019-04-19T00:34:58.779Z,47.23
2019-04-19T00:35:58.212Z,48.09
2019-04-19T00:36:57.579Z,48.28
2019-04-19T00:38:04.157Z,48.09
2019-04-19T00:39:15.069Z,47.99
2019-04-19T00:40:18.409Z,48.44
2019-04-19T00:41:13.604Z,48.16
2019-04-19T00:42:18.188Z,48.35
2019-04-19T00:43:07.605Z,48.25
2019-04-19T00:44:15.263Z,48.64
2019-04-19T00:45:14.106Z,48.93
2019-04-19T00:46:16.066Z,49.30
2019-04-19T00:47:14.428Z,49.59
2019-04-19T00:48:08.465Z,48.93
2019-04-19T00:49:10.170Z,47.97
2019-04-19T00:50:07.720Z,48.64
2019-04-19T00:51:08.154Z,48.83
2019-04-19T00:52:09.802Z,48.73
2019-04-19T00:53:12.233Z,48.73
2019-04-19T00:54:09.403Z,48.16
2019-04-19T00:55:08.186Z,48.16
2019-04-19T00:56:04.487Z,48.35
2019-04-19T00:57:03.220Z,48.73
2019-04-19T00:58:06.420Z,49.11
2019-04-19T00:59:02.542Z,48.73
2019-04-19T00:59:58.149Z,48.83
2019-04-19T01:01:04.964Z,49.11
2019-04-19T01:02:04.743Z,48.73
2019-04-19T01:02:59.444Z,49.02
2019-04-19T01:03:57.500Z,49.11
2019-04-19T01:05:03.706Z,49.30
2019-04-19T01:06:03.712Z,48.93
2019-04-19T01:07:00.950Z,48.73
2019-04-19T01:08:00.026Z,49.69
2019-04-19T01:09:13.850Z,49.69
2019-04-19T01:10:15.091Z,50.35
2019-04-19T01:11:14.189Z,49.30
2019-04-19T01:12:11.971Z,49.02
2019-04-19T01:13:08.932Z,49.21
2019-04-19T01:14:12.775Z,48.16
2019-04-19T01:15:11.879Z,48.73
2019-04-19T01:16:12.312Z,49.40
2019-04-19T01:17:11.494Z,49.02
2019-04-19T01:18:11.776Z,49.40
2019-04-19T01:19:04.006Z,49.02
2019-04-19T01:20:02.033Z,49.11
2019-04-19T01:20:57.001Z,49.21
2019-04-19T01:21:57.504Z,49.21
2019-04-19T01:23:03.827Z,49.69
2019-04-19T01:23:59.132Z,49.98
2019-04-19T01:24:58.247Z,49.18
2019-04-19T01:26:01.661Z,48.99
2019-04-19T01:26:57.927Z,49.66
2019-04-19T01:28:03.811Z,49.47
2019-04-19T01:29:02.365Z,49.95
2019-04-19T01:29:59.123Z,50.04
2019-04-19T01:30:57.103Z,49.95
2019-04-19T01:32:03.133Z,49.66
2019-04-19T01:33:00.712Z,49.66
2019-04-19T01:33:56.838Z,49.85
2019-04-19T01:35:00.975Z,50.04
2019-04-19T01:35:58.190Z,50.14
2019-04-19T01:36:57.092Z,50.33
2019-04-19T01:38:01.929Z,50.33
2019-04-19T01:39:14.200Z,50.14
2019-04-19T01:40:09.735Z,50.33
2019-04-19T01:41:15.857Z,50.33
2019-04-19T01:42:11.737Z,50.62
2019-04-19T01:43:13.237Z,50.43
2019-04-19T01:44:20.530Z,50.43
2019-04-19T01:45:10.054Z,50.62
2019-04-19T01:46:09.335Z,50.71
2019-04-19T01:47:14.165Z,50.04
2019-04-19T01:48:19.071Z,50.24
2019-04-19T01:49:06.223Z,50.43
2019-04-19T01:50:05.536Z,50.62
2019-04-19T01:51:13.042Z,50.81
2019-04-19T01:52:21.745Z,50.43
2019-04-19T01:53:13.552Z,50.52
2019-04-19T01:54:17.499Z,50.81
2019-04-19T01:55:06.795Z,50.71
2019-04-19T01:56:02.014Z,50.52
2019-04-19T01:57:00.711Z,50.71
2019-04-19T01:58:02.538Z,50.81
2019-04-19T01:59:00.117Z,50.90
2019-04-19T01:59:59.128Z,50.90
2019-04-19T02:00:59.848Z,51.00
2019-04-19T02:02:03.880Z,51.19
2019-04-19T02:03:00.058Z,51.19
2019-04-19T02:03:57.037Z,51.29
2019-04-19T02:05:00.715Z,51.29
2019-04-19T02:06:01.933Z,51.00
2019-04-19T02:06:56.507Z,51.09
2019-04-19T02:08:02.068Z,51.29
2019-04-19T02:09:00.081Z,51.09
2019-04-19T02:10:12.464Z,51.09
2019-04-19T02:11:05.513Z,51.86
2019-04-19T02:12:11.678Z,51.76
2019-04-19T02:13:04.111Z,51.76
2019-04-19T02:14:04.811Z,52.12
2019-04-19T02:15:02.746Z,52.40
2019-04-19T02:15:57.476Z,52.31
2019-04-19T02:17:02.047Z,52.12
2019-04-19T02:17:57.108Z,51.83
2019-04-19T02:19:03.293Z,51.93
2019-04-19T02:20:01.057Z,51.64
2019-04-19T02:20:56.245Z,51.74
2019-04-19T02:22:00.149Z,51.83
2019-04-19T02:23:01.572Z,51.74
2019-04-19T02:23:59.071Z,51.74
2019-04-19T02:24:58.921Z,51.54
2019-04-19T02:26:01.786Z,51.83
2019-04-19T02:27:01.060Z,51.83
2019-04-19T02:27:56.462Z,51.74
2019-04-19T02:29:02.597Z,52.50
2019-04-19T02:30:00.626Z,52.40
2019-04-19T02:31:11.943Z,52.22
2019-04-19T02:33:20.028Z,52.12
2019-04-19T02:34:29.071Z,51.93
2019-04-19T02:35:15.415Z,51.74
2019-04-19T02:36:25.219Z,51.45
2019-04-19T02:37:31.690Z,52.03
2019-04-19T02:38:24.973Z,52.88
2019-04-19T02:40:42.887Z,54.79
2019-04-19T02:41:26.248Z,56.04
2019-04-19T02:43:24.078Z,57.06
2019-04-19T02:44:17.425Z,58.01
2019-04-19T02:45:17.678Z,58.01
2019-04-19T02:46:35.873Z,58.20
2019-04-19T02:47:30.699Z,58.97
2019-04-19T02:48:26.389Z,59.06
2019-04-19T02:49:28.394Z,59.31
2019-04-19T02:50:27.917Z,59.03
2019-04-19T02:52:29.148Z,58.75
2019-04-19T02:53:26.357Z,57.70
2019-04-19T02:54:25.602Z,56.84
2019-04-19T02:55:35.493Z,57.03
2019-04-19T02:56:38.041Z,56.55
2019-04-19T02:58:39.977Z,57.03
2019-04-19T02:59:37.354Z,56.10
2019-04-19T03:01:26.781Z,54.96
2019-04-19T03:02:33.704Z,56.48
2019-04-19T03:04:38.958Z,58.20
2019-04-19T03:06:08.701Z,60.27
2019-04-19T03:06:59.539Z,60.17
2019-04-19T03:07:55.656Z,60.46
2019-04-19T03:08:56.510Z,60.36
2019-04-19T03:09:55.674Z,59.89
2019-04-19T03:11:07.471Z,60.46
2019-04-19T03:12:15.048Z,61.41
2019-04-19T03:13:16.165Z,61.89
2019-04-19T03:14:07.962Z,61.70
2019-04-19T03:15:10.109Z,61.89
2019-04-19T03:16:12.733Z,61.89
2019-04-19T03:17:11.304Z,61.60
2019-04-19T03:18:19.211Z,59.79
2019-04-19T03:19:11.028Z,60.08
2019-04-19T03:20:13.404Z,61.04
2019-04-19T03:21:08.337Z,61.22
2019-04-19T03:22:16.266Z,61.13
2019-04-19T03:23:10.789Z,61.70
2019-04-19T03:24:12.404Z,61.80
2019-04-19T03:25:10.838Z,61.89
2019-04-19T03:26:10.831Z,61.32
2019-04-19T03:27:05.594Z,61.41
2019-04-19T03:28:08.126Z,60.55
2019-04-19T03:28:58.673Z,58.75
2019-04-19T03:30:09.403Z,58.17
2019-04-19T03:32:37.375Z,58.46
2019-04-19T03:34:18.552Z,59.70
2019-04-19T03:35:06.668Z,59.79
2019-04-19T03:37:19.425Z,59.12
2019-04-19T03:38:10.384Z,59.12
2019-04-19T03:39:17.995Z,58.46
2019-04-19T03:41:18.899Z,58.84
2019-04-19T03:42:12.965Z,59.89
2019-04-19T03:43:23.200Z,59.31
2019-04-19T03:44:10.426Z,59.51
2019-04-19T03:45:12.906Z,60.84
2019-04-19T03:46:13.868Z,61.60
2019-04-19T03:47:15.987Z,61.89
2019-04-19T03:48:15.657Z,62.08
2019-04-19T03:49:24.669Z,62.27
2019-04-19T03:50:15.181Z,61.80
2019-04-19T03:52:17.677Z,59.70
2019-04-19T03:53:12.137Z,59.22
2019-04-19T03:54:15.576Z,58.75
2019-04-19T03:55:14.320Z,58.65
2019-04-19T03:56:30.318Z,58.46
2019-04-19T03:57:04.463Z,58.26
2019-04-19T03:58:04.548Z,57.79
2019-04-19T03:58:56.323Z,57.70
2019-04-19T03:59:54.795Z,57.41
2019-04-19T04:00:55.907Z,57.22
2019-04-19T04:01:57.838Z,56.93
2019-04-19T04:02:54.749Z,57.03
2019-04-19T04:04:03.054Z,57.12
2019-04-19T04:04:59.466Z,56.93
2019-04-19T04:05:55.461Z,56.84
2019-04-19T04:06:54.966Z,56.74
2019-04-19T04:08:03.306Z,56.74
2019-04-19T04:08:58.951Z,56.93
2019-04-19T04:09:57.847Z,56.84
2019-04-19T04:10:54.633Z,56.65
2019-04-19T04:12:03.443Z,56.65
2019-04-19T04:13:10.829Z,56.65
2019-04-19T04:14:07.522Z,56.74
2019-04-19T04:15:08.339Z,56.74
2019-04-19T04:16:07.885Z,56.74
2019-04-19T04:16:55.385Z,56.84
2019-04-19T04:17:54.551Z,57.50
2019-04-19T04:18:55.424Z,57.31
2019-04-19T04:19:54.671Z,57.03
2019-04-19T04:20:58.653Z,57.12
2019-04-19T04:21:56.071Z,56.65
2019-04-19T04:23:00.871Z,56.26
2019-04-19T04:24:04.792Z,56.26
2019-04-19T04:25:05.229Z,56.46
2019-04-19T04:26:02.856Z,56.46
2019-04-19T04:27:03.823Z,56.55
2019-04-19T04:28:03.767Z,56.55
2019-04-19T04:29:06.486Z,56.46
2019-04-19T04:30:05.673Z,56.26
2019-04-19T04:31:07.962Z,56.36
2019-04-19T04:32:05.357Z,56.36
2019-04-19T04:33:05.426Z,57.89
2019-04-19T04:34:03.672Z,59.12
2019-04-19T04:35:10.455Z,60.46
2019-04-19T04:36:16.733Z,61.41
2019-04-19T04:37:06.338Z,61.60
2019-04-19T04:38:03.847Z,61.22
2019-04-19T04:38:54.613Z,60.75
2019-04-19T04:39:55.515Z,60.94
2019-04-19T04:40:54.765Z,60.94
2019-04-19T04:42:07.914Z,60.84
2019-04-19T04:43:08.714Z,61.04
2019-04-19T04:44:13.468Z,61.41
2019-04-19T04:45:19.569Z,61.89
2019-04-19T04:46:35.365Z,62.18
2019-04-19T04:47:16.565Z,61.80
2019-04-19T04:48:10.326Z,61.13
2019-04-19T04:49:25.594Z,61.51
2019-04-19T04:50:20.847Z,60.94
2019-04-19T04:51:16.037Z,61.04
2019-04-19T04:52:04.714Z,60.84
2019-04-19T04:52:54.395Z,60.84
2019-04-19T04:53:55.197Z,60.55
2019-04-19T04:54:54.487Z,60.65
2019-04-19T04:55:58.994Z,60.84
2019-04-19T04:57:02.485Z,60.84
2019-04-19T04:57:57.761Z,60.84
2019-04-19T04:58:57.212Z,60.65
2019-04-19T04:59:57.477Z,60.65
2019-04-19T05:01:01.474Z,60.08
2019-04-19T05:02:01.491Z,59.70
2019-04-19T05:03:09.269Z,59.89
2019-04-19T05:04:08.719Z,60.17
2019-04-19T05:05:11.375Z,60.36
2019-04-19T05:06:13.731Z,60.75
2019-04-19T05:07:10.174Z,60.65
2019-04-19T05:08:14.279Z,60.36
2019-04-19T05:09:14.039Z,60.55
2019-04-19T05:10:12.022Z,60.55
2019-04-19T05:11:11.956Z,60.55
2019-04-19T05:12:42.561Z,60.55
2019-04-19T05:14:11.498Z,60.46
2019-04-19T05:15:15.887Z,60.55
2019-04-19T05:16:25.163Z,60.55
2019-04-19T05:17:30.398Z,60.55
2019-04-19T05:18:17.269Z,60.55
2019-04-19T05:19:03.709Z,60.55
2019-04-19T05:20:14.311Z,60.65
2019-04-19T05:21:14.509Z,60.65
2019-04-19T05:22:12.646Z,60.65
2019-04-19T05:23:11.016Z,60.65
2019-04-19T05:24:14.985Z,60.75
2019-04-19T05:25:20.777Z,60.84
2019-04-19T05:26:25.113Z,60.84
2019-04-19T05:27:14.779Z,61.04
2019-04-19T05:28:14.990Z,61.22
2019-04-19T05:29:06.293Z,61.04
2019-04-19T05:29:56.247Z,61.13
2019-04-19T05:30:58.827Z,61.32
2019-04-19T05:32:03.882Z,61.41
2019-04-19T05:33:05.949Z,60.94
2019-04-19T05:34:15.864Z,60.58
2019-04-19T05:35:08.386Z,59.63
2019-04-19T05:36:15.286Z,59.44
2019-04-19T05:37:08.294Z,59.82
2019-04-19T05:38:07.595Z,60.21
2019-04-19T05:39:12.637Z,60.58
2019-04-19T05:40:09.580Z,60.87
2019-04-19T05:41:06.241Z,61.16
2019-04-19T05:42:08.532Z,61.16
2019-04-19T05:43:18.924Z,61.35
2019-04-19T05:45:26.268Z,61.83
2019-04-19T05:46:17.895Z,61.92
2019-04-19T05:47:11.863Z,61.73
2019-04-19T05:48:00.607Z,60.97
2019-04-19T05:49:10.316Z,60.87
2019-04-19T05:50:17.079Z,61.25
2019-04-19T05:51:25.090Z,60.78
2019-04-19T05:52:15.235Z,60.39
2019-04-19T05:53:07.919Z,60.68
2019-04-19T05:53:56.799Z,61.16
2019-04-19T05:54:53.836Z,60.68
2019-04-19T05:55:54.282Z,59.47
2019-04-19T05:56:57.209Z,59.28
2019-04-19T05:58:05.751Z,59.09
2019-04-19T05:59:03.640Z,59.95
2019-04-19T06:00:03.046Z,60.04
2019-04-19T06:01:05.795Z,60.33
2019-04-19T06:02:09.391Z,58.80
2019-04-19T06:03:06.489Z,60.04
2019-04-19T06:04:11.698Z,59.28
2019-04-19T06:05:14.961Z,59.19
2019-04-19T06:06:33.549Z,59.19
2019-04-19T06:07:15.908Z,57.94
2019-04-19T06:08:02.645Z,57.78
2019-04-19T06:08:54.065Z,56.54
2019-04-19T06:09:54.067Z,56.82
2019-04-19T06:10:57.995Z,56.73
2019-04-19T06:11:53.328Z,57.59
2019-04-19T06:13:00.460Z,58.36
2019-04-19T06:14:12.486Z,58.73
2019-04-19T06:15:14.853Z,59.02
2019-04-19T06:16:12.885Z,59.12
2019-04-19T06:17:06.286Z,60.07
2019-04-19T06:18:09.810Z,59.50
2019-04-19T06:19:09.797Z,58.54
2019-04-19T06:20:12.293Z,57.31
2019-04-19T06:21:17.199Z,57.14
2019-04-19T06:22:04.483Z,56.47
2019-04-19T06:23:12.483Z,56.38
2019-04-19T06:24:19.143Z,56.67
2019-04-19T06:25:12.238Z,56.57
2019-04-19T06:26:42.276Z,56.95
2019-04-19T06:27:17.828Z,56.85
2019-04-19T06:28:15.449Z,57.33
2019-04-19T06:29:10.859Z,57.24
2019-04-19T06:30:15.193Z,56.85
2019-04-19T06:31:20.326Z,56.18
2019-04-19T06:32:18.729Z,57.04
2019-04-19T06:33:11.077Z,57.24
2019-04-19T06:34:10.321Z,56.57
2019-04-19T06:35:05.618Z,57.33
2019-04-19T06:35:58.897Z,58.12
2019-04-19T06:37:01.647Z,58.51
2019-04-19T06:37:52.523Z,57.46
2019-04-19T06:38:52.852Z,55.93
2019-04-19T06:40:04.924Z,57.17
2019-04-19T06:41:00.447Z,57.46
2019-04-19T06:41:58.944Z,55.26
2019-04-19T06:42:59.689Z,55.83
2019-04-19T06:44:07.892Z,56.21
2019-04-19T06:45:13.165Z,56.69
2019-04-19T06:46:07.073Z,55.54
2019-04-19T06:47:02.723Z,55.07
2019-04-19T06:47:58.954Z,56.12
2019-04-19T06:49:00.887Z,53.63
2019-04-19T06:49:54.590Z,53.44
2019-04-19T06:50:56.957Z,53.73
2019-04-19T06:52:01.397Z,53.63
2019-04-19T06:52:53.181Z,54.11
2019-04-19T06:53:59.902Z,53.94
2019-04-19T06:54:53.603Z,54.04
2019-04-19T06:55:58.475Z,53.85
2019-04-19T06:57:00.787Z,54.33
2019-04-19T06:58:01.554Z,54.52
2019-04-19T06:59:06.231Z,53.66
2019-04-19T07:00:06.288Z,53.18
2019-04-19T07:01:04.764Z,53.37
2019-04-19T07:01:55.879Z,53.75
2019-04-19T07:02:52.209Z,53.47
2019-04-19T07:03:52.170Z,52.89
2019-04-19T07:05:10.452Z,53.18
2019-04-19T07:06:10.395Z,54.43
2019-04-19T07:07:13.341Z,52.70
2019-04-19T07:08:26.227Z,54.14
2019-04-19T07:09:33.441Z,55.10
2019-04-19T07:10:20.639Z,53.85
2019-04-19T07:11:27.320Z,53.20
2019-04-19T07:12:12.191Z,53.78
2019-04-19T07:13:09.799Z,53.78
2019-04-19T07:14:02.558Z,53.30
2019-04-19T07:15:12.388Z,52.83
2019-04-19T07:17:11.003Z,52.83
2019-04-19T07:18:05.982Z,52.92
2019-04-19T07:19:14.562Z,52.73
2019-04-19T07:20:07.913Z,53.14
2019-04-19T07:21:12.014Z,52.66
2019-04-19T07:22:07.178Z,52.75
2019-04-19T07:23:02.860Z,53.14
2019-04-19T07:24:18.370Z,53.04
2019-04-19T07:25:19.717Z,54.10
2019-04-19T07:26:15.813Z,54.77
2019-04-19T07:27:06.864Z,54.28
2019-04-19T07:28:01.841Z,54.28
2019-04-19T07:28:51.942Z,53.71
2019-04-19T07:29:53.406Z,53.36
2019-04-19T07:30:56.104Z,52.87
2019-04-19T07:31:51.821Z,51.92
2019-04-19T07:33:00.644Z,53.36
2019-04-19T07:34:06.346Z,52.50
2019-04-19T07:35:07.879Z,53.55
2019-04-19T07:36:11.818Z,53.83
2019-04-19T07:37:08.655Z,54.70
2019-04-19T07:38:17.387Z,53.36
2019-04-19T07:39:09.139Z,53.16
2019-04-19T07:40:15.991Z,53.83
2019-04-19T07:41:09.991Z,52.30
2019-04-19T07:42:10.865Z,52.40
2019-04-19T07:43:05.470Z,52.69
2019-04-19T07:44:02.534Z,52.14
2019-04-19T07:44:58.216Z,52.33
2019-04-19T07:46:14.937Z,52.23
2019-04-19T07:47:07.965Z,50.70
2019-04-19T07:47:58.757Z,51.28
2019-04-19T07:48:51.620Z,50.12
2019-04-19T07:50:02.965Z,49.84
2019-04-19T07:50:58.952Z,50.51
2019-04-19T07:52:01.771Z,51.95
2019-04-19T07:52:58.252Z,51.75
2019-04-19T07:53:54.348Z,51.95
2019-04-19T07:54:55.367Z,52.16
2019-04-19T07:56:00.748Z,50.73
2019-04-19T07:57:17.372Z,50.82
2019-04-19T07:59:17.997Z,49.86
2019-04-19T08:00:21.195Z,49.76
2019-04-19T08:01:17.569Z,50.65
2019-04-19T08:02:36.089Z,50.08
2019-04-19T08:03:24.581Z,51.04
2019-04-19T08:04:40.477Z,49.21
2019-04-19T08:06:22.380Z,49.41
2019-04-19T08:08:34.145Z,49.31
2019-04-19T08:09:20.365Z,49.21
2019-04-19T08:10:33.375Z,49.72
2019-04-19T08:11:28.771Z,49.72
2019-04-19T08:12:30.729Z,48.11
2019-04-19T08:14:39.983Z,48.81
2019-04-19T08:16:15.695Z,46.79
2019-04-19T08:18:34.843Z,46.21
2019-04-19T08:28:59.065Z,47.41
2019-04-19T08:29:58.057Z,45.10
2019-04-19T08:30:56.727Z,44.45
2019-04-19T08:31:51.320Z,45.51
2019-04-19T08:32:51.326Z,45.44
2019-04-19T08:33:51.159Z,45.25
2019-04-19T08:34:57.691Z,43.73
2019-04-19T08:35:53.824Z,44.04
2019-04-19T08:36:55.550Z,44.15
2019-04-19T08:37:52.161Z,42.90
2019-04-19T08:39:07.000Z,41.84
2019-04-19T08:40:16.043Z,40.30
2019-04-19T08:41:06.277Z,41.57
2019-04-19T08:42:09.423Z,40.70
2019-04-19T08:43:30.723Z,40.44
2019-04-19T08:44:09.337Z,39.59
2019-04-19T08:44:59.199Z,38.83
2019-04-19T08:45:51.053Z,38.18
2019-04-19T08:46:51.540Z,37.04
2019-04-19T08:48:02.539Z,37.23
2019-04-19T08:48:56.326Z,37.15
2019-04-19T08:49:51.951Z,36.10
2019-04-19T08:50:55.938Z,34.65
2019-04-19T08:51:50.999Z,34.75
2019-04-19T08:52:57.679Z,34.27
2019-04-19T08:54:14.244Z,34.55
2019-04-19T08:55:09.044Z,34.92
2019-04-19T08:56:08.547Z,35.99
2019-04-19T08:56:57.533Z,36.38
2019-04-19T08:57:58.188Z,35.60
2019-04-19T08:59:08.030Z,34.91
2019-04-19T09:00:18.723Z,35.66
2019-04-19T09:01:13.950Z,35.66
2019-04-19T09:02:14.419Z,36.72
2019-04-19T09:03:03.035Z,37.60
2019-04-19T09:04:09.126Z,36.34
2019-04-19T09:05:09.160Z,37.70
2019-04-19T09:06:49.904Z,38.18
2019-04-19T09:07:34.128Z,36.36
2019-04-19T09:08:13.323Z,37.90
2019-04-19T09:09:08.206Z,38.28
2019-04-19T09:10:23.090Z,36.84
2019-04-19T09:11:14.917Z,36.46
2019-04-19T09:12:01.444Z,37.32
2019-04-19T09:13:12.178Z,36.92
2019-04-19T09:14:10.866Z,36.52
2019-04-19T09:15:06.501Z,37.77
2019-04-19T09:16:12.768Z,38.45
2019-04-19T09:17:14.464Z,36.22
2019-04-19T09:18:29.706Z,36.01
2019-04-19T09:19:17.051Z,38.74
2019-04-19T09:20:25.446Z,37.48
2019-04-19T09:21:10.553Z,35.74
2019-04-19T09:22:09.283Z,36.61
2019-04-19T09:23:11.626Z,35.16
2019-04-19T09:23:57.393Z,35.37
2019-04-19T09:24:57.140Z,35.68
2019-04-19T09:26:04.592Z,34.27
2019-04-19T09:27:04.973Z,34.28
2019-04-19T09:28:15.087Z,33.83
2019-04-19T09:29:19.511Z,31.92
2019-04-19T09:30:13.783Z,31.18
2019-04-19T09:30:58.316Z,28.96
2019-04-19T09:32:00.709Z,28.09
2019-04-19T09:32:51.588Z,28.02
2019-04-19T09:33:57.721Z,27.64
2019-04-19T09:34:58.692Z,25.79
2019-04-19T09:36:00.005Z,27.26
2019-04-19T09:37:03.595Z,27.45
2019-04-19T09:38:04.296Z,25.90
2019-04-19T09:39:08.622Z,25.80
2019-04-19T09:39:59.811Z,26.39
2019-04-19T09:40:57.880Z,27.28
2019-04-19T09:41:57.226Z,28.65
2019-04-19T09:42:57.128Z,25.43
2019-04-19T09:44:01.726Z,25.24
2019-04-19T09:44:56.568Z,25.24
2019-04-19T09:45:51.140Z,26.21
2019-04-19T09:46:50.852Z,26.79
2019-04-19T09:47:50.654Z,26.48
2019-04-19T09:49:07.440Z,26.36
2019-04-19T09:50:03.860Z,26.84
2019-04-19T09:51:07.333Z,27.03
2019-04-19T09:52:05.847Z,27.70
2019-04-19T09:53:24.999Z,27.98
2019-04-19T09:54:17.030Z,28.86
2019-04-19T09:55:17.290Z,29.06
2019-04-19T09:56:12.117Z,27.89
2019-04-19T09:57:06.844Z,28.57
2019-04-19T09:58:14.008Z,28.68
2019-04-19T09:59:03.017Z,28.38
2019-04-19T09:59:57.050Z,28.96
2019-04-19T10:00:53.741Z,28.58
2019-04-19T10:01:55.597Z,28.69
2019-04-19T10:02:56.517Z,28.11
2019-04-19T10:03:56.649Z,27.64
2019-04-19T10:04:50.675Z,25.20
2019-04-19T10:05:51.000Z,26.39
2019-04-19T10:06:51.125Z,25.69
2019-04-19T10:07:50.697Z,26.08
2019-04-19T10:08:51.853Z,27.83
2019-04-19T10:09:56.623Z,27.54
2019-04-19T10:10:51.677Z,26.95
2019-04-19T10:11:50.924Z,26.76
2019-04-19T10:12:51.736Z,26.86
2019-04-19T10:13:50.668Z,26.67
2019-04-19T10:14:51.451Z,27.33
2019-04-19T10:15:50.614Z,27.62
2019-04-19T10:16:50.676Z,27.33
2019-04-19T10:17:50.646Z,27.92
2019-04-19T10:18:56.067Z,27.61
2019-04-19T10:19:50.893Z,28.11
2019-04-19T10:20:51.076Z,27.93
2019-04-19T10:21:51.895Z,27.15
2019-04-19T10:22:50.950Z,25.60
2019-04-19T10:23:51.896Z,25.12
2019-04-19T10:24:53.693Z,25.42
2019-04-19T10:25:56.014Z,25.52
2019-04-19T10:26:50.630Z,25.92
2019-04-19T10:27:51.591Z,25.82
2019-04-19T10:28:50.712Z,24.48
2019-04-19T10:29:51.164Z,23.80
2019-04-19T10:30:50.607Z,22.94
2019-04-19T10:31:53.453Z,22.45
2019-04-19T10:32:53.120Z,23.71
2019-04-19T10:33:55.434Z,23.90
2019-04-19T10:34:50.604Z,24.11
2019-04-19T10:35:51.700Z,23.34
2019-04-19T10:36:52.166Z,23.05
2019-04-19T10:37:51.460Z,22.84
2019-04-19T10:38:52.000Z,24.88
2019-04-19T10:39:51.833Z,24.88
2019-04-19T10:40:51.450Z,25.16
2019-04-19T10:41:50.677Z,25.45
2019-04-19T10:42:51.421Z,24.46
2019-04-19T10:44:00.853Z,24.74
2019-04-19T10:44:51.975Z,25.80
2019-04-19T10:45:50.605Z,25.87
2019-04-19T10:46:51.020Z,26.08
2019-04-19T10:47:51.764Z,25.58
2019-04-19T10:49:02.547Z,27.92
2019-04-19T10:49:57.731Z,27.53
2019-04-19T10:50:53.568Z,27.72
2019-04-19T10:51:50.600Z,26.44
2019-04-19T10:52:50.594Z,26.83
2019-04-19T10:53:50.595Z,28.18
2019-04-19T10:54:51.611Z,29.74
2019-04-19T10:55:50.593Z,28.36
2019-04-19T10:56:50.588Z,29.44
2019-04-19T10:57:51.373Z,29.93
2019-04-19T10:58:50.591Z,29.44
2019-04-19T10:59:50.594Z,29.54
2019-04-19T11:00:51.428Z,30.79
2019-04-19T11:01:50.583Z,31.55
2019-04-19T11:02:50.575Z,31.55
2019-04-19T11:03:50.787Z,29.62
2019-04-19T11:04:51.003Z,29.62
2019-04-19T11:05:50.581Z,29.35
2019-04-19T11:06:51.473Z,28.39
2019-04-19T11:07:51.609Z,29.55
2019-04-19T11:08:50.793Z,29.38
2019-04-19T11:09:51.315Z,29.18
2019-04-19T11:10:51.672Z,29.29
2019-04-19T11:11:51.809Z,27.33
2019-04-19T11:12:50.564Z,27.92
2019-04-19T11:13:50.557Z,27.51
2019-04-19T11:14:50.550Z,27.98
2019-04-19T11:15:50.622Z,29.16
2019-04-19T11:16:51.452Z,30.33
2019-04-19T11:17:51.729Z,28.51
2019-04-19T11:18:50.543Z,26.86
2019-04-19T11:20:05.933Z,26.97
2019-04-19T11:20:52.841Z,27.08
2019-04-19T11:21:51.778Z,27.86
2019-04-19T11:22:50.563Z,28.05
2019-04-19T11:23:51.517Z,29.14
2019-04-19T11:24:50.535Z,27.01
2019-04-19T11:25:52.106Z,25.35
2019-04-19T11:26:50.868Z,25.54
2019-04-19T11:27:52.811Z,25.54
2019-04-19T11:28:51.348Z,24.08
2019-04-19T11:29:50.530Z,24.37
2019-04-19T11:30:50.882Z,24.63
2019-04-19T11:31:50.528Z,25.79
2019-04-19T11:32:50.661Z,27.82
2019-04-19T11:33:50.914Z,27.72
2019-04-19T11:34:51.338Z,27.23
2019-04-19T11:35:50.517Z,27.82
2019-04-19T11:36:51.518Z,27.33
2019-04-19T11:37:51.031Z,28.59
2019-04-19T11:38:51.326Z,28.40
2019-04-19T11:39:50.921Z,26.07
2019-04-19T11:40:51.238Z,27.04
2019-04-19T11:41:51.387Z,27.33
2019-04-19T11:42:51.152Z,27.62
2019-04-19T11:43:51.559Z,28.20
2019-04-19T11:44:51.903Z,26.73
2019-04-19T11:45:51.618Z,27.61
2019-04-19T11:46:50.509Z,28.38
2019-04-19T11:47:51.305Z,29.52
2019-04-19T11:48:50.499Z,30.40
2019-04-19T11:49:51.366Z,28.55
2019-04-19T11:50:51.765Z,26.90
2019-04-19T11:51:50.495Z,27.96
2019-04-19T11:52:50.492Z,27.37
2019-04-19T11:53:50.522Z,27.47
2019-04-19T11:54:50.709Z,27.08
2019-04-19T11:55:50.728Z,25.42
2019-04-19T11:56:55.632Z,26.57
2019-04-19T11:57:50.481Z,26.57
2019-04-19T11:58:50.759Z,26.09
2019-04-19T11:59:53.119Z,25.89
2019-04-19T12:00:51.766Z,26.76
2019-04-19T12:01:50.477Z,27.06
2019-04-19T12:02:51.644Z,28.70
2019-04-19T12:03:50.499Z,28.43
2019-04-19T12:04:50.466Z,27.47
2019-04-19T12:05:50.606Z,27.89
2019-04-19T12:06:50.486Z,26.65
2019-04-19T12:07:50.590Z,24.54
2019-04-19T12:08:51.303Z,23.66
2019-04-19T12:09:50.461Z,24.44
2019-04-19T12:10:50.540Z,24.07
2019-04-19T12:11:50.596Z,22.81
2019-04-19T12:12:50.990Z,23.02
2019-04-19T12:13:50.453Z,21.77
2019-04-19T12:14:50.464Z,19.41
2019-04-19T12:15:50.725Z,20.58
2019-04-19T12:16:50.926Z,20.98
2019-04-19T12:17:50.779Z,20.50
2019-04-19T12:18:51.768Z,20.89
2019-04-19T12:19:56.008Z,21.18
2019-04-19T12:20:51.208Z,22.56
2019-04-19T12:21:52.763Z,22.08
2019-04-19T12:22:51.493Z,20.51
2019-04-19T12:23:50.801Z,20.14
2019-04-19T12:24:52.462Z,21.32
2019-04-19T12:25:51.398Z,20.94
2019-04-19T12:26:51.463Z,19.87
2019-04-19T12:27:51.796Z,19.18
2019-04-19T12:28:51.291Z,20.75
2019-04-19T12:29:53.285Z,19.39
2019-04-19T12:30:53.273Z,17.51
2019-04-19T12:31:53.891Z,18.19
2019-04-19T12:32:51.181Z,19.65
2019-04-19T12:33:51.315Z,20.04
2019-04-19T12:34:50.853Z,21.21
2019-04-19T12:35:50.488Z,19.44
2019-04-19T12:36:50.995Z,19.24
2019-04-19T12:37:51.251Z,21.18
2019-04-19T12:38:50.519Z,20.29
2019-04-19T12:39:50.862Z,21.56
2019-04-19T12:40:50.495Z,22.14
2019-04-19T12:41:50.507Z,22.13
2019-04-19T12:42:51.825Z,23.02
2019-04-19T12:43:51.683Z,22.62
2019-04-19T12:44:50.511Z,22.02
2019-04-19T12:45:52.164Z,21.72
2019-04-19T12:46:50.836Z,23.47
2019-04-19T12:47:51.163Z,24.45
2019-04-19T12:48:50.523Z,24.76
2019-04-19T12:49:57.495Z,24.66
2019-04-19T12:50:51.626Z,24.66
2019-04-19T12:51:50.519Z,23.49
2019-04-19T12:52:51.732Z,22.61
2019-04-19T12:53:51.281Z,24.16
2019-04-19T12:54:50.522Z,23.77
2019-04-19T12:55:51.587Z,23.67
2019-04-19T12:56:51.778Z,22.69
2019-04-19T12:57:50.520Z,24.06
2019-04-19T12:58:51.438Z,22.79
2019-04-19T12:59:51.710Z,23.56
2019-04-19T13:00:50.708Z,22.87
2019-04-19T13:01:50.600Z,23.65
2019-04-19T13:02:51.702Z,24.80
2019-04-19T13:03:50.533Z,25.68
2019-04-19T13:04:50.759Z,26.17
2019-04-19T13:05:51.356Z,26.25
2019-04-19T13:06:50.528Z,27.31
2019-04-19T13:07:51.413Z,25.95
2019-04-19T13:08:50.955Z,26.61
2019-04-19T13:09:50.950Z,26.22
2019-04-19T13:10:51.178Z,26.90
2019-04-19T13:11:50.656Z,26.12
2019-04-19T13:12:51.792Z,26.42
2019-04-19T13:13:50.525Z,25.74
2019-04-19T13:14:51.309Z,26.12
2019-04-19T13:15:50.526Z,26.82
2019-04-19T13:16:50.606Z,25.95
2019-04-19T13:17:51.853Z,25.75
2019-04-19T13:18:50.523Z,27.40
2019-04-19T13:20:02.261Z,25.65
2019-04-19T13:20:50.553Z,24.58
2019-04-19T13:21:50.526Z,26.04
2019-04-19T13:22:50.590Z,26.43
2019-04-19T13:23:50.688Z,25.56
2019-04-19T13:24:50.525Z,25.95